Time;durP1;ratioP1;P1;durP2;ratioP2;P2;SDS_P1;SDS_P2;PMS_P1;PMS_P2;Temp;Humidity;BMP_temperature;BMP_pressure;BME280_temperature;BME280_humidity;BME280_pressure;Samples;Min_cycle;Max_cycle;Signal;HPM_P1;HPM_P2
2024/02/29 00:01:57;;;;;;;53.00;22.10;;;;;;;3.59;53.23;101574.53;4986629;28;20827;-67
2024/02/29 00:04:24;;;;;;;54.67;23.27;;;;;;;3.24;53.91;101574.47;4995240;28;20046;-67
2024/02/29 00:06:50;;;;;;;53.92;20.17;;;;;;;3.27;54.05;101574.44;4987376;28;21172;-67
2024/02/29 00:09:16;;;;;;;57.75;21.25;;;;;;;3.57;53.70;101563.31;4995300;28;20430;-68
2024/02/29 00:11:41;;;;;;;51.97;20.95;;;;;;;3.49;53.56;101565.03;4990977;28;20041;-67
2024/02/29 00:14:06;;;;;;;52.17;23.17;;;;;;;3.48;53.72;101573.66;4976281;28;20532;-69
2024/02/29 00:16:32;;;;;;;54.03;21.65;;;;;;;3.50;53.00;101567.63;4995901;28;20045;-66
2024/02/29 00:18:58;;;;;;;59.30;20.20;;;;;;;3.31;53.09;101558.13;4988685;28;20033;-72
2024/02/29 00:21:23;;;;;;;52.20;20.90;;;;;;;3.61;52.77;101553.88;4981663;28;20048;-74
2024/02/29 00:23:49;;;;;;;58.47;20.27;;;;;;;3.85;51.43;101559.03;4968900;28;20030;-71
2024/02/29 00:26:14;;;;;;;57.47;20.27;;;;;;;3.80;51.31;101542.63;4997936;28;20057;-71
2024/02/29 00:28:40;;;;;;;52.97;21.60;;;;;;;3.87;51.04;101543.47;4982845;28;20573;-72
2024/02/29 00:31:05;;;;;;;57.95;20.25;;;;;;;3.80;51.23;101547.78;4975959;28;20774;-73
2024/02/29 00:33:31;;;;;;;47.22;19.38;;;;;;;4.08;50.95;101540.00;4985339;28;20170;-70
2024/02/29 00:35:56;;;;;;;60.13;21.35;;;;;;;3.72;51.25;101536.63;4956382;28;20419;-72
2024/02/29 00:38:22;;;;;;;45.75;19.00;;;;;;;3.38;52.77;101542.66;4974530;28;20081;-70
2024/02/29 00:40:48;;;;;;;57.58;20.63;;;;;;;3.69;52.00;101527.13;4944529;28;20156;-71
2024/02/29 00:43:13;;;;;;;53.95;21.35;;;;;;;3.94;51.18;101517.63;4924808;28;20039;-70
2024/02/29 00:45:39;;;;;;;56.75;20.45;;;;;;;3.98;51.25;101514.16;4951923;28;20033;-70
2024/02/29 00:48:05;;;;;;;54.70;21.67;;;;;;;3.89;51.30;101511.56;4906938;28;20191;-70
2024/02/29 00:50:32;;;;;;;52.05;22.17;;;;;;;3.92;51.08;101509.00;4947500;28;20388;-70
2024/02/29 00:52:58;;;;;;;66.43;23.88;;;;;;;3.57;51.71;101509.91;4941794;28;20037;-72
2024/02/29 00:55:26;;;;;;;63.78;23.33;;;;;;;3.23;52.39;101490.94;4962460;28;20049;-70
2024/02/29 00:57:51;;;;;;;54.83;22.38;;;;;;;3.28;52.83;101493.50;4943370;28;20045;-72
2024/02/29 01:00:17;;;;;;;47.13;20.33;;;;;;;3.46;52.33;101497.84;4972231;28;20029;-69
2024/02/29 01:02:44;;;;;;;44.28;18.55;;;;;;;3.65;51.55;101480.59;4988403;28;20043;-66
2024/02/29 01:05:11;;;;;;;58.33;21.48;;;;;;;3.19;52.81;101474.56;4991348;28;20083;-66
2024/02/29 01:07:40;;;;;;;48.53;19.55;;;;;;;3.46;51.87;101470.28;4981352;28;20419;-70
2024/02/29 01:10:11;;;;;;;50.97;20.13;;;;;;;3.29;52.12;101462.56;4972550;28;20044;-71
2024/02/29 01:12:41;;;;;;;55.83;19.70;;;;;;;3.46;51.78;101447.00;4947677;28;20045;-70
2024/02/29 01:15:08;;;;;;;62.85;22.65;;;;;;;2.55;53.81;101448.63;4970608;28;20028;-70
2024/02/29 01:17:34;;;;;;;53.55;21.42;;;;;;;3.00;52.70;101452.16;4992167;28;20045;-70
2024/02/29 01:20:04;;;;;;;50.92;18.92;;;;;;;2.82;53.64;101452.13;4983608;28;20124;-71
2024/02/29 01:22:30;;;;;;;56.38;21.48;;;;;;;2.47;54.56;101442.63;4966073;28;20042;-68
2024/02/29 01:24:56;;;;;;;47.10;18.55;;;;;;;2.74;53.65;101437.50;4972461;28;20123;-69
2024/02/29 01:27:21;;;;;;;56.10;20.38;;;;;;;2.84;53.15;101432.34;4993450;28;20128;-69
2024/02/29 01:29:47;;;;;;;44.80;18.10;;;;;;;2.87;52.75;101424.63;4991247;28;20044;-68
2024/02/29 01:32:12;;;;;;;45.05;18.98;;;;;;;2.94;52.83;101426.34;4980107;28;20045;-68
2024/02/29 01:34:38;;;;;;;49.38;17.35;;;;;;;2.66;53.42;101434.03;4957424;28;20372;-69
2024/02/29 01:37:03;;;;;;;50.17;17.77;;;;;;;2.77;52.91;101422.00;4958453;28;21946;-67
2024/02/29 01:39:29;;;;;;;59.65;18.83;;;;;;;2.82;52.69;101414.25;4995431;28;20017;-68
2024/02/29 01:41:57;;;;;;;60.08;21.35;;;;;;;2.66;53.31;101415.97;4984456;28;20041;-68
2024/02/29 01:44:26;;;;;;;58.22;20.38;;;;;;;2.90;52.87;101414.28;4977726;28;20654;-70
2024/02/29 01:46:52;;;;;;;56.53;20.08;;;;;;;2.70;52.99;101417.69;4951285;28;20056;-68
2024/02/29 01:49:18;;;;;;;60.20;21.42;;;;;;;2.53;53.83;101409.06;4987360;28;20033;-68
2024/02/29 01:51:45;;;;;;;52.80;18.55;;;;;;;2.43;53.62;101404.75;4994020;28;20038;-67
2024/02/29 01:54:11;;;;;;;54.05;19.88;;;;;;;2.59;53.16;101393.59;4987262;28;20036;-66
2024/02/29 01:56:37;;;;;;;47.80;18.08;;;;;;;2.53;53.45;101394.47;4981572;28;20045;-77
2024/02/29 01:59:04;;;;;;;55.88;20.08;;;;;;;2.51;53.57;101400.44;4946298;28;20880;-74
2024/02/29 02:01:30;;;;;;;59.13;19.55;;;;;;;2.22;54.33;101388.38;4978272;28;20045;-74
2024/02/29 02:03:55;;;;;;;50.47;19.40;;;;;;;2.18;54.46;101386.63;4954593;28;20115;-73
2024/02/29 02:06:21;;;;;;;53.47;21.05;;;;;;;2.24;54.22;101380.63;4980382;28;20046;-74
2024/02/29 02:08:46;;;;;;;47.72;18.80;;;;;;;1.79;55.45;101383.03;4972312;28;20057;-73
2024/02/29 02:11:12;;;;;;;44.72;17.20;;;;;;;2.10;54.46;101383.16;4954120;28;20077;-73
2024/02/29 02:13:39;;;;;;;47.50;17.10;;;;;;;2.38;54.11;101378.06;4996290;28;20144;-73
2024/02/29 02:16:08;;;;;;;45.22;18.77;;;;;;;2.37;54.22;101377.22;4983005;28;20065;-73
2024/02/29 02:18:34;;;;;;;55.70;20.52;;;;;;;2.40;53.75;101372.06;4975055;28;20048;-73
2024/02/29 02:21:00;;;;;;;51.17;17.95;;;;;;;1.93;55.29;101363.34;4959527;28;20131;-75
2024/02/29 02:23:26;;;;;;;45.75;17.20;;;;;;;2.44;53.90;101362.59;4969366;28;20511;-75
2024/02/29 02:25:51;;;;;;;47.63;18.23;;;;;;;1.80;55.33;101363.28;4990478;28;20050;-73
2024/02/29 02:28:17;;;;;;;40.45;16.35;;;;;;;2.52;53.76;101361.75;4976303;28;21005;-74
2024/02/29 02:30:45;;;;;;;44.60;16.45;;;;;;;1.99;54.66;101348.75;4976611;28;20447;-74
2024/02/29 02:33:14;;;;;;;38.67;15.95;;;;;;;2.27;54.61;101340.22;4954403;28;20033;-74
2024/02/29 02:35:40;;;;;;;41.78;16.83;;;;;;;2.56;54.06;101344.56;4995222;28;20039;-74
2024/02/29 02:38:05;;;;;;;41.85;16.52;;;;;;;2.52;53.31;101335.09;4983520;28;20033;-75
2024/02/29 02:40:31;;;;;;;48.42;18.38;;;;;;;2.28;54.44;101334.19;4992227;28;20041;-74
2024/02/29 02:42:57;;;;;;;38.08;16.40;;;;;;;2.19;54.58;101321.28;4945480;28;20090;-75
2024/02/29 02:45:25;;;;;;;42.13;14.82;;;;;;;2.20;54.31;101317.88;4986702;28;20120;-75
2024/02/29 02:47:51;;;;;;;41.33;16.35;;;;;;;2.66;53.38;101310.16;4976618;28;20037;-75
2024/02/29 02:50:16;;;;;;;39.53;15.77;;;;;;;2.12;54.93;101306.66;4986376;28;20069;-74
2024/02/29 02:52:42;;;;;;;41.03;14.90;;;;;;;2.28;54.77;101305.81;4991793;28;20132;-74
2024/02/29 02:55:07;;;;;;;37.47;15.68;;;;;;;2.34;54.07;101303.25;4987003;28;20025;-74
2024/02/29 02:57:33;;;;;;;32.28;13.90;;;;;;;2.57;53.61;101297.25;4988522;28;20621;-74
2024/02/29 02:59:58;;;;;;;39.83;15.25;;;;;;;2.32;54.10;101293.81;4988646;28;20049;-74
2024/02/29 03:02:24;;;;;;;35.67;14.32;;;;;;;2.08;54.82;101279.13;4967543;28;20068;-74
2024/02/29 03:04:49;;;;;;;35.90;13.80;;;;;;;2.12;54.66;101278.28;4979086;28;20073;-71
2024/02/29 03:07:15;;;;;;;32.35;13.60;;;;;;;2.50;53.55;101267.16;4977392;28;20752;-72
2024/02/29 03:09:41;;;;;;;38.60;14.43;;;;;;;2.03;55.34;101275.72;4965722;28;20077;-74
2024/02/29 03:12:07;;;;;;;32.42;13.32;;;;;;;2.35;54.06;101266.28;4948471;28;20076;-73
2024/02/29 03:14:33;;;;;;;38.50;13.27;;;;;;;2.26;54.57;101258.53;4961486;28;20108;-76
2024/02/29 03:16:58;;;;;;;32.38;13.63;;;;;;;2.27;54.43;101255.09;4960841;28;20522;-74
2024/02/29 03:19:24;;;;;;;30.17;13.15;;;;;;;2.16;54.89;101263.69;4968298;28;20018;-75
2024/02/29 03:21:49;;;;;;;32.72;13.18;;;;;;;2.32;54.41;101245.63;4963474;28;20971;-74
2024/02/29 03:24:18;;;;;;;35.25;14.70;;;;;;;2.08;55.21;101253.34;4961871;28;20181;-74
2024/02/29 03:26:43;;;;;;;33.67;13.40;;;;;;;2.50;53.58;101244.78;4939847;28;20111;-75
2024/02/29 03:29:11;;;;;;;34.10;14.75;;;;;;;1.90;55.11;101230.97;4957844;28;20037;-75
2024/02/29 03:31:37;;;;;;;33.60;13.38;;;;;;;2.16;54.79;101230.16;4918488;28;20605;-75
2024/02/29 03:34:03;;;;;;;32.22;13.82;;;;;;;1.90;55.78;101236.13;4941333;28;20026;-75
2024/02/29 03:36:29;;;;;;;38.17;13.90;;;;;;;2.53;53.52;101231.00;4932060;28;20856;-75
2024/02/29 03:38:55;;;;;;;26.42;12.20;;;;;;;2.37;54.38;101224.16;4939024;28;20037;-75
2024/02/29 03:41:20;;;;;;;29.50;12.38;;;;;;;1.86;55.52;101229.25;4951714;28;20049;-75
2024/02/29 03:43:46;;;;;;;29.73;12.32;;;;;;;2.38;54.14;101229.31;4967025;28;20037;-75
2024/02/29 03:46:11;;;;;;;25.90;11.90;;;;;;;2.13;54.56;101225.84;4977905;28;20173;-71
2024/02/29 03:48:36;;;;;;;28.27;11.25;;;;;;;2.48;54.18;101219.84;4995514;28;20091;-70
2024/02/29 03:51:02;;;;;;;34.13;13.52;;;;;;;2.45;53.79;101209.53;4988719;28;20057;-72
2024/02/29 03:53:28;;;;;;;29.75;11.95;;;;;;;2.63;53.37;101209.50;4961253;28;20081;-70
2024/02/29 03:55:54;;;;;;;25.85;11.90;;;;;;;2.43;54.21;101204.38;4965309;28;20054;-74
2024/02/29 03:58:19;;;;;;;32.22;13.55;;;;;;;2.55;53.50;101199.22;4971467;28;20168;-75
2024/02/29 04:00:45;;;;;;;24.95;12.98;;;;;;;2.78;53.29;101206.03;4995364;28;20041;-74
2024/02/29 04:03:11;;;;;;;33.92;12.40;;;;;;;2.22;54.89;101196.63;4978832;28;20168;-74
2024/02/29 04:05:36;;;;;;;28.02;12.82;;;;;;;1.92;55.63;101208.66;4976375;28;20030;-74
2024/02/29 04:08:03;;;;;;;27.63;12.82;;;;;;;2.64;53.81;101205.19;4992053;28;20060;-74
2024/02/29 04:10:30;;;;;;;27.42;12.27;;;;;;;2.09;54.97;101200.94;4967708;28;20049;-74
2024/02/29 04:12:57;;;;;;;37.22;12.35;;;;;;;2.13;55.06;101197.47;4992454;28;20025;-74
2024/02/29 04:15:23;;;;;;;33.92;14.25;;;;;;;2.49;53.82;101198.34;4965057;28;20033;-73
2024/02/29 04:17:49;;;;;;;24.65;11.30;;;;;;;2.59;53.62;101202.63;4991411;28;20041;-74
2024/02/29 04:20:14;;;;;;;35.13;12.63;;;;;;;2.53;53.54;101207.78;4988332;28;20025;-73
2024/02/29 04:22:40;;;;;;;32.47;13.18;;;;;;;1.88;55.40;101187.16;4996318;28;20133;-73
2024/02/29 04:25:10;;;;;;;24.85;11.82;;;;;;;2.17;55.09;101188.88;4968930;28;20037;-73
2024/02/29 04:27:36;;;;;;;25.67;11.43;;;;;;;2.43;53.92;101188.03;4936959;28;20052;-72
2024/02/29 04:30:01;;;;;;;34.30;11.93;;;;;;;2.44;53.83;101192.31;4988052;28;20113;-72
2024/02/29 04:32:27;;;;;;;26.63;12.15;;;;;;;2.11;54.48;101178.59;4987882;28;20084;-70
2024/02/29 04:34:52;;;;;;;29.70;12.00;;;;;;;2.35;53.50;101176.00;4993298;28;20576;-74
2024/02/29 04:37:18;;;;;;;26.83;10.85;;;;;;;2.50;53.33;101176.84;4966112;28;22359;-72
2024/02/29 04:39:43;;;;;;;28.92;12.93;;;;;;;2.36;53.51;101161.38;4950341;28;20041;-72
2024/02/29 04:42:09;;;;;;;24.83;10.63;;;;;;;2.38;53.92;101156.19;4988190;28;20044;-72
2024/02/29 04:44:34;;;;;;;23.42;11.38;;;;;;;2.46;53.35;101160.50;4976076;28;20639;-73
2024/02/29 04:47:00;;;;;;;28.08;11.45;;;;;;;2.53;53.24;101158.75;4971470;28;20048;-72
2024/02/29 04:49:25;;;;;;;29.05;12.30;;;;;;;1.86;54.41;101149.34;4966956;28;20153;-71
2024/02/29 04:51:53;;;;;;;29.45;11.95;;;;;;;2.39;53.58;101158.78;4964955;28;20045;-74
2024/02/29 04:54:19;;;;;;;21.45;10.20;;;;;;;2.54;53.03;101152.75;4975455;28;20029;-74
2024/02/29 04:56:44;;;;;;;27.70;10.90;;;;;;;2.17;53.87;101139.88;4997540;28;20487;-73
2024/02/29 04:59:10;;;;;;;26.50;10.50;;;;;;;2.28;53.78;101147.63;4995252;28;20032;-67
2024/02/29 05:01:36;;;;;;;29.10;10.77;;;;;;;2.66;52.82;101150.13;4979275;28;20939;-65
2024/02/29 05:04:03;;;;;;;23.05;9.30;;;;;;;2.25;53.43;101135.59;5014155;28;20033;-70
2024/02/29 05:06:29;;;;;;;24.60;9.90;;;;;;;2.54;53.02;101135.53;4983477;28;20111;-66
2024/02/29 05:08:54;;;;;;;22.83;10.15;;;;;;;2.28;53.51;101139.88;5008601;28;20961;-72
2024/02/29 05:11:20;;;;;;;24.25;10.80;;;;;;;2.46;53.10;101141.56;4985632;28;20045;-72
2024/02/29 05:13:46;;;;;;;21.98;9.57;;;;;;;2.34;53.48;101135.56;4998642;28;20045;-72
2024/02/29 05:16:15;;;;;;;21.98;10.73;;;;;;;2.27;54.01;101133.88;4987869;28;20251;-72
2024/02/29 05:18:41;;;;;;;25.75;10.30;;;;;;;2.62;52.56;101125.19;4957946;28;20030;-73
2024/02/29 05:21:07;;;;;;;23.55;9.52;;;;;;;2.46;53.37;101124.38;4966603;28;20045;-71
2024/02/29 05:23:33;;;;;;;19.35;9.88;;;;;;;2.70;52.65;101118.28;4966654;28;20045;-71
2024/02/29 05:25:59;;;;;;;20.42;9.75;;;;;;;2.98;52.05;101115.63;4981598;28;20045;-71
2024/02/29 05:28:26;;;;;;;16.50;8.00;;;;;;;2.87;52.06;101117.38;4970909;28;20048;-70
2024/02/29 05:30:51;;;;;;;22.23;9.43;;;;;;;2.79;52.21;101117.41;4962954;28;20041;-73
2024/02/29 05:33:17;;;;;;;21.15;8.80;;;;;;;2.60;53.04;101106.28;4961452;28;20041;-72
2024/02/29 05:35:48;;;;;;;20.50;8.95;;;;;;;2.50;53.15;101102.00;4969581;28;20044;-74
2024/02/29 05:38:13;;;;;;;19.83;9.45;;;;;;;2.55;52.46;101102.84;4967043;28;20033;-72
2024/02/29 05:40:39;;;;;;;17.00;8.18;;;;;;;2.59;52.82;101099.41;4936622;28;20519;-71
2024/02/29 05:43:07;;;;;;;19.17;8.43;;;;;;;2.55;52.77;101097.69;4962780;28;20037;-70
2024/02/29 05:45:32;;;;;;;19.08;8.45;;;;;;;2.83;52.10;101093.28;4944169;28;20284;-71
2024/02/29 05:47:58;;;;;;;19.60;8.55;;;;;;;2.81;52.30;101089.84;4959503;28;20037;-69
2024/02/29 05:50:24;;;;;;;17.52;7.57;;;;;;;2.96;51.84;101083.78;4949221;28;20143;-69
2024/02/29 05:52:52;;;;;;;22.92;7.78;;;;;;;2.54;52.72;101088.25;4978739;28;20099;-70
2024/02/29 05:55:17;;;;;;;23.95;8.98;;;;;;;2.79;52.18;101086.41;4974616;28;20539;-67
2024/02/29 05:57:43;;;;;;;17.20;8.05;;;;;;;2.68;52.58;101088.19;4991470;28;20053;-70
2024/02/29 06:00:09;;;;;;;19.02;8.43;;;;;;;2.70;52.44;101089.91;4978600;28;20100;-71
2024/02/29 06:02:37;;;;;;;18.67;8.38;;;;;;;2.71;52.49;101089.06;4979609;28;20394;-71
2024/02/29 06:05:04;;;;;;;14.32;7.65;;;;;;;2.80;51.98;101092.44;4964958;28;20570;-67
2024/02/29 06:07:30;;;;;;;19.08;8.75;;;;;;;2.85;51.88;101093.31;4984205;28;20056;-67
2024/02/29 06:09:55;;;;;;;18.67;9.07;;;;;;;3.07;51.63;101092.31;4993925;28;20033;-68
2024/02/29 06:12:23;;;;;;;21.80;8.57;;;;;;;2.80;51.73;101098.47;4953286;28;20041;-68
2024/02/29 06:14:49;;;;;;;17.67;7.85;;;;;;;3.03;51.56;101087.19;4968261;28;20037;-68
2024/02/29 06:17:16;;;;;;;15.27;7.75;;;;;;;3.08;51.19;101088.84;4992603;28;20076;-68
2024/02/29 06:19:41;;;;;;;15.38;8.65;;;;;;;2.46;52.51;101083.09;4990818;28;22457;-68
2024/02/29 06:22:07;;;;;;;16.88;7.85;;;;;;;2.78;52.20;101082.13;4974996;28;20041;-68
2024/02/29 06:24:33;;;;;;;16.65;7.82;;;;;;;2.38;52.56;101081.38;4984078;28;20108;-68
2024/02/29 06:27:00;;;;;;;16.52;7.80;;;;;;;3.00;51.44;101080.28;4992190;28;20082;-68
2024/02/29 06:29:26;;;;;;;14.68;6.13;;;;;;;2.69;52.38;101085.63;4995437;28;20071;-68
2024/02/29 06:31:51;;;;;;;21.27;8.02;;;;;;;2.49;52.62;101088.25;4987521;28;20252;-68
2024/02/29 06:34:24;;;;;;;14.73;7.03;;;;;;;2.65;52.60;101083.91;4993967;28;20112;-69
2024/02/29 06:36:52;;;;;;;21.65;7.20;;;;;;;2.70;52.65;101087.31;4961983;28;20178;-68
2024/02/29 06:39:17;;;;;;;15.55;6.55;;;;;;;2.56;52.48;101083.94;4995062;28;20703;-68
2024/02/29 06:41:43;;;;;;;14.30;6.75;;;;;;;2.99;51.51;101083.75;4983202;28;20126;-68
2024/02/29 06:44:09;;;;;;;15.15;6.72;;;;;;;2.96;51.90;101086.34;4998224;28;20567;-68
2024/02/29 06:46:37;;;;;;;14.02;6.25;;;;;;;2.69;52.43;101090.78;4985762;28;20034;-68
2024/02/29 06:49:04;;;;;;;15.13;7.13;;;;;;;3.09;51.98;101088.00;4995970;28;20035;-68
2024/02/29 06:51:29;;;;;;;11.70;5.78;;;;;;;3.10;52.03;101076.81;4972539;28;20037;-68
2024/02/29 06:53:56;;;;;;;13.23;6.22;;;;;;;2.60;52.17;101085.66;4990173;28;20029;-68
2024/02/29 06:56:23;;;;;;;13.90;6.78;;;;;;;3.40;51.24;101077.50;4999369;28;20045;-67
2024/02/29 06:58:49;;;;;;;14.30;5.90;;;;;;;3.04;51.88;101075.97;4951245;28;20848;-68
2024/02/29 07:01:15;;;;;;;15.70;7.72;;;;;;;3.19;51.79;101076.75;4960329;28;20056;-67
2024/02/29 07:03:40;;;;;;;9.38;5.55;;;;;;;3.28;51.73;101060.31;4943932;28;20045;-66
2024/02/29 07:06:06;;;;;;;11.65;5.53;;;;;;;3.15;51.71;101059.53;4943990;28;20627;-67
2024/02/29 07:08:34;;;;;;;14.63;6.20;;;;;;;3.39;51.69;101062.88;4947981;28;21162;-68
2024/02/29 07:11:00;;;;;;;11.13;6.10;;;;;;;3.37;51.96;101073.22;4930126;28;20044;-67
2024/02/29 07:13:26;;;;;;;11.85;6.22;;;;;;;3.33;51.93;101066.34;4968308;28;20028;-67
2024/02/29 07:15:52;;;;;;;11.65;6.82;;;;;;;3.16;52.33;101066.44;4969674;28;23280;-68
2024/02/29 07:18:20;;;;;;;13.20;5.50;;;;;;;3.28;52.28;101069.81;4981124;28;20124;-68
2024/02/29 07:20:46;;;;;;;13.02;5.82;;;;;;;2.95;52.74;101067.41;4983733;28;21190;-69
2024/02/29 07:23:13;;;;;;;12.07;6.20;;;;;;;3.38;51.94;101062.03;4982805;28;20060;-68
2024/02/29 07:25:39;;;;;;;9.90;5.75;;;;;;;3.43;52.01;101064.56;4936679;28;20045;-67
2024/02/29 07:28:06;;;;;;;10.02;4.88;;;;;;;3.09;53.12;101059.59;4987838;28;20034;-67
2024/02/29 07:30:32;;;;;;;12.18;5.55;;;;;;;3.40;52.65;101064.56;4966247;28;20526;-67
2024/02/29 07:32:58;;;;;;;9.35;5.70;;;;;;;2.70;54.20;101063.22;4971854;28;20022;-68
2024/02/29 07:35:27;;;;;;;11.05;5.30;;;;;;;3.47;52.06;101053.34;4995675;28;20040;-67
2024/02/29 07:37:52;;;;;;;11.35;5.78;;;;;;;3.43;53.05;101053.38;4980919;28;20119;-68
2024/02/29 07:40:18;;;;;;;12.18;5.45;;;;;;;3.47;53.03;101061.09;4994933;28;20041;-68
2024/02/29 07:42:43;;;;;;;14.35;6.25;;;;;;;3.78;52.22;101053.09;4981663;28;20049;-68
2024/02/29 07:45:10;;;;;;;12.95;5.30;;;;;;;3.48;53.11;101054.22;4996388;28;20048;-67
2024/02/29 07:47:35;;;;;;;16.33;5.47;;;;;;;3.26;53.86;101051.72;4983656;28;20168;-68
2024/02/29 07:50:05;;;;;;;9.85;5.22;;;;;;;2.72;55.73;101054.63;4962015;28;20056;-68
2024/02/29 07:52:31;;;;;;;11.25;5.63;;;;;;;3.16;55.06;101058.69;4993814;28;20038;-67
2024/02/29 07:54:57;;;;;;;15.10;4.60;;;;;;;3.70;54.07;101048.00;4981923;28;20112;-67
2024/02/29 07:57:22;;;;;;;10.77;5.40;;;;;;;3.57;54.29;101038.63;4992561;28;20148;-67
2024/02/29 07:59:48;;;;;;;14.43;5.93;;;;;;;3.62;53.99;101046.34;4975320;28;20610;-68
2024/02/29 08:02:13;;;;;;;13.85;5.78;;;;;;;3.32;54.50;101056.91;4980445;28;20046;-68
2024/02/29 08:04:39;;;;;;;10.38;5.05;;;;;;;3.77;53.43;101051.38;4991330;28;20120;-68
2024/02/29 08:07:06;;;;;;;7.88;5.03;;;;;;;3.41;54.98;101045.66;4980279;28;20042;-68
2024/02/29 08:09:35;;;;;;;13.80;5.60;;;;;;;3.42;54.89;101046.50;4993144;28;20029;-67
2024/02/29 08:12:01;;;;;;;17.15;6.00;;;;;;;3.76;53.60;101044.47;4966030;28;20058;-67
2024/02/29 08:14:28;;;;;;;14.07;5.72;;;;;;;3.74;53.81;101041.06;4945811;28;20091;-67
2024/02/29 08:16:53;;;;;;;12.32;5.75;;;;;;;3.63;54.32;101038.56;4945063;28;20327;-68
2024/02/29 08:19:19;;;;;;;12.00;5.55;;;;;;;3.64;54.25;101036.84;4961443;28;20029;-68
2024/02/29 08:21:45;;;;;;;10.20;4.78;;;;;;;4.09;52.64;101038.13;4944939;28;20045;-68
2024/02/29 08:24:10;;;;;;;8.23;4.05;;;;;;;3.88;53.21;101022.84;4959097;28;20642;-68
2024/02/29 08:26:36;;;;;;;10.25;5.22;;;;;;;3.81;53.50;101029.81;4970796;28;20059;-67
2024/02/29 08:29:02;;;;;;;10.98;4.68;;;;;;;4.17;53.45;101027.72;4972682;28;20124;-68
2024/02/29 08:31:27;;;;;;;11.02;3.90;;;;;;;3.59;54.47;101026.53;5001372;28;20069;-68
2024/02/29 08:34:01;;;;;;;12.02;4.40;;;;;;;4.15;53.38;101026.88;4968406;28;20119;-68
2024/02/29 08:36:29;;;;;;;8.50;4.57;;;;;;;4.31;53.04;101025.81;4999653;28;20167;-66
2024/02/29 08:38:54;;;;;;;9.35;4.32;;;;;;;4.18;53.38;101024.25;4989932;28;20095;-68
2024/02/29 08:41:20;;;;;;;10.07;5.63;;;;;;;4.66;52.10;101028.88;4956607;28;21144;-67
2024/02/29 08:43:48;;;;;;;11.18;4.85;;;;;;;4.47;53.20;101025.63;4947565;28;20108;-67
2024/02/29 08:46:14;;;;;;;8.27;4.35;;;;;;;4.53;52.66;101022.97;4966676;28;20901;-68
2024/02/29 08:48:42;;;;;;;10.65;5.10;;;;;;;4.76;52.02;101023.53;4959765;28;20029;-67
2024/02/29 08:51:09;;;;;;;11.55;4.60;;;;;;;4.50;52.77;101030.78;4955776;28;20057;-68
2024/02/29 08:53:34;;;;;;;9.77;4.72;;;;;;;3.98;53.79;101033.09;4958967;28;20112;-67
2024/02/29 08:56:01;;;;;;;9.10;3.95;;;;;;;4.48;52.76;101037.72;4959887;28;20216;-68
2024/02/29 08:58:27;;;;;;;8.98;4.50;;;;;;;4.11;53.37;101038.97;4996403;28;20535;-68
2024/02/29 09:00:52;;;;;;;12.30;4.63;;;;;;;3.73;54.73;101031.59;4985492;28;20044;-68
2024/02/29 09:03:18;;;;;;;8.55;4.75;;;;;;;3.87;54.37;101037.47;4988958;28;21041;-68
2024/02/29 09:05:44;;;;;;;8.85;5.43;;;;;;;4.35;53.68;101031.81;4965911;28;20487;-68
2024/02/29 09:08:10;;;;;;;15.07;5.03;;;;;;;4.64;52.79;101034.06;4958881;28;20033;-69
2024/02/29 09:10:36;;;;;;;10.57;4.43;;;;;;;4.16;54.30;101037.22;4950709;28;20080;-69
2024/02/29 09:13:04;;;;;;;8.20;4.97;;;;;;;4.31;53.83;101031.00;4968550;28;20418;-66
2024/02/29 09:15:30;;;;;;;8.90;3.72;;;;;;;4.38;53.82;101026.59;4995299;28;20719;-68
2024/02/29 09:17:56;;;;;;;9.48;4.43;;;;;;;4.08;54.24;101027.81;4949108;28;20033;-68
2024/02/29 09:20:24;;;;;;;8.90;5.07;;;;;;;4.20;54.54;101028.53;4998294;28;20059;-67
2024/02/29 09:22:50;;;;;;;9.43;4.47;;;;;;;4.12;55.12;101016.53;4983644;28;20499;-68
2024/02/29 09:25:19;;;;;;;8.35;5.22;;;;;;;4.02;55.15;101024.41;4999970;28;20388;-68
2024/02/29 09:27:45;;;;;;;10.88;4.45;;;;;;;4.29;55.15;101017.22;4973363;28;20053;-69
2024/02/29 09:30:14;;;;;;;13.85;5.03;;;;;;;4.08;55.45;101027.81;4971019;28;20025;-68
2024/02/29 09:32:40;;;;;;;14.15;4.47;;;;;;;4.42;55.48;101013.59;4992564;28;20124;-69
2024/02/29 09:35:06;;;;;;;8.88;4.25;;;;;;;4.64;54.68;101008.19;4985297;28;20090;-67
2024/02/29 09:37:32;;;;;;;11.60;4.95;;;;;;;4.78;54.74;101010.56;4994242;28;20069;-68
2024/02/29 09:39:57;;;;;;;9.02;4.40;;;;;;;4.62;54.31;101009.91;4964761;28;20197;-69
2024/02/29 09:42:26;;;;;;;8.93;4.82;;;;;;;5.18;54.60;101005.69;4986595;28;20072;-68
2024/02/29 09:44:52;;;;;;;8.57;3.75;;;;;;;4.92;54.62;101000.03;4987793;28;20127;-68
2024/02/29 09:47:19;;;;;;;8.23;3.97;;;;;;;4.57;55.34;101009.13;4980748;28;20132;-69
2024/02/29 09:49:45;;;;;;;10.27;4.32;;;;;;;4.91;55.05;101003.53;4967581;28;20034;-66
2024/02/29 09:52:12;;;;;;;8.60;5.22;;;;;;;5.14;54.36;101005.78;4951257;28;20041;-69
2024/02/29 09:54:39;;;;;;;8.43;4.80;;;;;;;5.07;54.47;101007.59;4995842;28;20035;-69
2024/02/29 09:57:07;;;;;;;12.77;5.63;;;;;;;4.49;56.00;100998.00;4974893;28;20045;-70
2024/02/29 09:59:36;;;;;;;14.93;4.45;;;;;;;4.91;55.02;101006.13;4958558;28;20029;-67
2024/02/29 10:02:03;;;;;;;10.93;4.95;;;;;;;4.64;55.91;101008.19;4959965;28;20056;-69
2024/02/29 10:04:29;;;;;;;12.60;5.40;;;;;;;4.77;55.39;100994.19;4972665;28;20670;-69
2024/02/29 10:06:54;;;;;;;7.70;4.50;;;;;;;4.50;56.28;100991.94;4971620;28;20045;-67
2024/02/29 10:09:21;;;;;;;9.52;4.43;;;;;;;4.37;56.24;101005.06;4969107;28;20038;-67
2024/02/29 10:11:48;;;;;;;14.43;4.97;;;;;;;4.73;56.28;101002.03;4972547;28;20156;-67
2024/02/29 10:14:31;;;;;;;12.25;5.10;;;;;;;4.61;56.01;100997.88;4977070;28;20057;-69
2024/02/29 10:16:56;;;;;;;;;;;;;;;4.34;57.77;100999.94;4984461;28;20041;-66
2024/02/29 10:19:23;;;;;;;9.88;3.97;;;;;;;4.86;56.47;100997.53;4995365;28;20410;-69
2024/02/29 10:21:49;;;;;;;9.38;4.80;;;;;;;4.86;56.16;101000.97;4982595;28;20730;-69
2024/02/29 10:24:18;;;;;;;10.50;4.70;;;;;;;5.10;55.53;101007.56;4977749;28;20068;-68
2024/02/29 10:26:48;;;;;;;8.98;4.95;;;;;;;4.84;56.15;101000.13;4975198;28;20041;-68
2024/02/29 10:29:18;;;;;;;10.45;5.63;;;;;;;4.08;58.55;101007.13;4974593;28;20034;-68
2024/02/29 10:31:43;;;;;;;13.60;5.32;;;;;;;4.38;57.07;101013.66;5000286;28;20041;-68
2024/02/29 10:34:10;;;;;;;17.55;5.97;;;;;;;3.89;58.59;101006.44;4974417;28;20073;-69
2024/02/29 10:36:35;;;;;;;13.15;6.15;;;;;;;4.62;57.45;101009.91;4949026;28;20104;-68
2024/02/29 10:39:01;;;;;;;12.18;5.70;;;;;;;4.48;56.96;101001.50;4968506;28;20962;-68
2024/02/29 10:41:34;;;;;;;9.38;4.45;;;;;;;4.79;56.32;101002.78;4957858;28;20037;-69
2024/02/29 10:44:06;;;;;;;10.73;6.45;;;;;;;4.92;56.29;100997.44;4963446;28;20037;-68
2024/02/29 10:46:35;;;;;;;10.77;5.63;;;;;;;5.17;55.67;100997.97;4955730;28;20228;-69
2024/02/29 10:49:33;;;;;;;12.93;5.88;;;;;;;4.68;56.18;100991.72;4985366;28;20116;-68
2024/02/29 10:52:13;;;;;;;6.80;3.92;;;;;;;4.79;56.26;100999.34;4983525;28;20037;-68
2024/02/29 10:54:45;;;;;;;11.05;5.97;;;;;;;5.02;55.98;100989.53;4995191;28;20058;-68
2024/02/29 10:57:18;;;;;;;10.43;5.32;;;;;;;4.57;57.06;100993.59;4965860;28;20128;-68
2024/02/29 10:59:51;;;;;;;15.18;5.72;;;;;;;4.12;58.10;100998.44;4975662;28;20033;-69
2024/02/29 11:02:17;;;;;;;10.30;4.80;;;;;;;4.47;57.67;100989.41;4984471;28;20053;-69
2024/02/29 11:04:43;;;;;;;9.68;5.28;;;;;;;4.56;57.26;100995.31;4994048;28;20399;-69
2024/02/29 11:07:09;;;;;;;10.88;5.03;;;;;;;5.04;56.11;100992.09;4952671;28;20045;-69
2024/02/29 11:09:35;;;;;;;12.05;5.25;;;;;;;4.94;55.88;100991.38;4992383;28;20037;-69
2024/02/29 11:12:11;;;;;;;12.65;5.43;;;;;;;4.98;56.00;100993.03;4994025;28;20033;-68
2024/02/29 11:14:37;;;;;;;8.85;5.35;;;;;;;4.40;56.86;100994.66;4994052;28;20109;-69
2024/02/29 11:17:04;;;;;;;15.40;5.65;;;;;;;4.73;56.93;100986.47;4987407;28;20037;-68
2024/02/29 11:19:32;;;;;;;9.20;3.78;;;;;;;4.90;56.31;100983.66;4978861;28;20059;-69